createdAt,value
2023-07-25T00:01:05.690Z,14.20
2023-07-25T00:03:32.791Z,14.20
2023-07-25T00:06:03.213Z,14.20
2023-07-25T00:08:30.573Z,14.20
2023-07-25T00:10:57.577Z,14.20
2023-07-25T00:13:24.493Z,14.20
2023-07-25T00:15:52.446Z,14.20
2023-07-25T00:18:19.241Z,14.20
2023-07-25T00:20:46.213Z,14.20
2023-07-25T00:23:12.951Z,14.20
2023-07-25T00:25:39.793Z,14.30
2023-07-25T00:28:06.606Z,14.20
2023-07-25T00:30:33.351Z,14.20
2023-07-25T00:33:00.175Z,14.20
2023-07-25T00:35:27.012Z,14.10
2023-07-25T00:37:53.840Z,14.10
2023-07-25T00:40:20.603Z,14.10
2023-07-25T00:42:47.461Z,14.10
2023-07-25T00:45:14.286Z,14.10
2023-07-25T00:47:41.156Z,14.20
2023-07-25T00:50:08.531Z,14.00
2023-07-25T00:52:35.456Z,14.00
2023-07-25T00:55:03.507Z,14.00
2023-07-25T00:57:32.007Z,14.00
2023-07-25T00:59:58.756Z,14.00
2023-07-25T01:02:26.330Z,14.10
2023-07-25T01:04:53.275Z,14.20
2023-07-25T01:07:21.071Z,14.00
2023-07-25T01:09:47.913Z,14.00
2023-07-25T01:12:14.798Z,14.00
2023-07-25T01:14:42.296Z,14.00
2023-07-25T01:17:14.619Z,14.00
2023-07-25T01:19:47.734Z,13.90
2023-07-25T01:22:15.005Z,14.10
2023-07-25T01:24:49.022Z,14.00
2023-07-25T01:27:16.801Z,14.10
2023-07-25T01:29:44.210Z,14.10
2023-07-25T01:32:11.751Z,14.00
2023-07-25T01:34:39.250Z,14.10
2023-07-25T01:37:07.460Z,14.10
2023-07-25T01:39:34.254Z,14.10
2023-07-25T01:42:01.035Z,14.00
2023-07-25T01:44:27.772Z,14.00
2023-07-25T01:46:58.072Z,14.00
2023-07-25T01:49:25.070Z,14.00
2023-07-25T01:51:51.971Z,14.00
2023-07-25T01:54:18.858Z,13.90
2023-07-25T01:56:47.460Z,13.90
2023-07-25T01:59:17.775Z,13.90
2023-07-25T02:01:44.712Z,13.90
2023-07-25T02:04:11.606Z,13.80
2023-07-25T02:06:38.404Z,13.70
2023-07-25T02:09:05.204Z,13.70
2023-07-25T02:11:32.229Z,13.70
2023-07-25T02:13:59.131Z,13.60
2023-07-25T02:16:25.913Z,13.50
2023-07-25T02:18:52.641Z,13.60
2023-07-25T02:21:19.408Z,13.60
2023-07-25T02:23:46.221Z,13.40
2023-07-25T02:26:13.028Z,13.40
2023-07-25T02:28:39.789Z,13.40
2023-07-25T02:31:06.724Z,13.30
2023-07-25T02:33:33.562Z,13.30
2023-07-25T02:36:00.408Z,13.40
2023-07-25T02:38:28.348Z,13.30
2023-07-25T02:40:55.158Z,13.30
2023-07-25T02:43:23.684Z,13.20
2023-07-25T02:45:51.459Z,13.20
2023-07-25T02:48:18.680Z,13.10
2023-07-25T02:50:45.561Z,13.10
2023-07-25T02:53:12.591Z,13.00
2023-07-25T02:55:39.620Z,13.10
2023-07-25T02:58:06.381Z,12.90
2023-07-25T03:00:33.212Z,12.90
2023-07-25T03:03:00.167Z,12.80
2023-07-25T03:05:30.005Z,12.80
2023-07-25T03:07:59.839Z,12.70
2023-07-25T03:10:27.004Z,12.70
2023-07-25T03:12:54.093Z,12.70
2023-07-25T03:15:21.527Z,12.70
2023-07-25T03:17:48.969Z,12.60
2023-07-25T03:20:15.820Z,12.50
2023-07-25T03:22:42.825Z,12.60
2023-07-25T03:25:10.348Z,12.60
2023-07-25T03:27:37.267Z,12.60
2023-07-25T03:30:05.321Z,12.40
2023-07-25T03:32:32.357Z,12.60
2023-07-25T03:34:59.296Z,12.60
2023-07-25T03:37:26.233Z,12.60
2023-07-25T03:39:54.269Z,12.50
2023-07-25T03:42:21.068Z,12.50
2023-07-25T03:44:47.913Z,12.50
2023-07-25T03:47:14.716Z,12.50
2023-07-25T03:49:41.463Z,12.40
2023-07-25T03:52:08.802Z,12.30
2023-07-25T03:54:35.608Z,12.40
2023-07-25T03:57:02.860Z,12.40
2023-07-25T03:59:29.622Z,12.40
2023-07-25T04:01:56.401Z,12.50
2023-07-25T04:04:23.242Z,12.50
2023-07-25T04:06:50.096Z,12.40
2023-07-25T04:09:16.804Z,12.60
2023-07-25T04:11:43.522Z,12.60
2023-07-25T04:14:10.298Z,12.60
2023-07-25T04:16:37.136Z,12.70
2023-07-25T04:19:03.946Z,12.70
2023-07-25T04:21:30.905Z,12.80
2023-07-25T04:23:57.883Z,12.70
2023-07-25T04:26:24.617Z,12.80
2023-07-25T04:28:51.379Z,12.90
2023-07-25T04:31:18.164Z,13.00
2023-07-25T04:33:45.097Z,13.10
2023-07-25T04:36:11.934Z,13.20
2023-07-25T04:38:38.683Z,13.30
2023-07-25T04:41:05.474Z,13.60
2023-07-25T04:43:32.237Z,14.00
2023-07-25T04:45:59.013Z,14.30
2023-07-25T04:48:25.905Z,14.60
2023-07-25T04:50:52.710Z,14.90
2023-07-25T04:53:19.447Z,15.30
2023-07-25T04:55:46.239Z,15.40
2023-07-25T04:58:12.992Z,15.60
2023-07-25T05:00:39.797Z,15.80
2023-07-25T05:03:06.759Z,16.10
2023-07-25T05:05:33.676Z,16.30
2023-07-25T05:08:00.470Z,16.40
2023-07-25T05:10:27.244Z,16.40
2023-07-25T05:12:54.042Z,16.40
2023-07-25T05:15:20.843Z,16.40
2023-07-25T05:17:47.687Z,16.60
2023-07-25T05:20:14.770Z,16.90
2023-07-25T05:22:41.696Z,17.30
2023-07-25T05:25:08.883Z,17.70
2023-07-25T05:27:36.027Z,17.80
2023-07-25T05:30:03.947Z,18.00
2023-07-25T05:32:30.748Z,18.50
2023-07-25T05:34:57.506Z,18.90
2023-07-25T05:37:33.791Z,19.00
2023-07-25T05:40:00.627Z,18.80
2023-07-25T05:42:27.385Z,19.00
2023-07-25T05:44:54.236Z,19.10
2023-07-25T05:47:21.004Z,19.50
2023-07-25T05:49:47.759Z,19.70
2023-07-25T05:52:14.581Z,19.80
2023-07-25T05:54:41.331Z,19.90
2023-07-25T05:57:08.448Z,19.90
2023-07-25T05:59:35.245Z,20.10
2023-07-25T06:02:03.266Z,20.20
2023-07-25T06:04:30.617Z,20.20
2023-07-25T06:06:57.494Z,20.20
2023-07-25T06:09:24.418Z,20.10
2023-07-25T06:11:51.281Z,20.20
2023-07-25T06:14:18.040Z,20.00
2023-07-25T06:16:44.893Z,20.00
2023-07-25T06:19:11.805Z,20.10
2023-07-25T06:21:38.648Z,20.30
2023-07-25T06:24:05.703Z,20.40
2023-07-25T06:26:32.667Z,20.90
2023-07-25T06:28:59.603Z,21.20
2023-07-25T06:31:26.505Z,21.10
2023-07-25T06:33:53.452Z,20.60
2023-07-25T06:36:20.594Z,20.50
2023-07-25T06:38:47.303Z,20.30
2023-07-25T06:41:14.037Z,20.50
2023-07-25T06:43:40.855Z,20.80
2023-07-25T06:46:07.725Z,21.20
2023-07-25T06:48:34.574Z,21.70
2023-07-25T06:51:01.326Z,21.90
2023-07-25T06:53:28.058Z,22.10
2023-07-25T06:55:54.825Z,22.40
2023-07-25T06:58:21.643Z,22.70
2023-07-25T07:00:48.584Z,22.70
2023-07-25T07:03:16.348Z,22.90
2023-07-25T07:05:53.222Z,23.10
2023-07-25T07:08:21.147Z,23.20
2023-07-25T07:10:52.205Z,23.10
2023-07-25T07:13:19.032Z,22.80
2023-07-25T07:15:47.343Z,22.70
2023-07-25T07:18:14.204Z,22.30
2023-07-25T07:20:41.009Z,21.80
2023-07-25T07:23:07.925Z,21.80
2023-07-25T07:25:37.942Z,21.80
2023-07-25T07:28:05.288Z,21.70
2023-07-25T07:30:32.037Z,21.40
2023-07-25T07:32:58.908Z,21.00
2023-07-25T07:35:25.744Z,20.70
2023-07-25T07:37:52.472Z,20.80
2023-07-25T07:40:19.372Z,21.10
2023-07-25T07:42:46.141Z,21.50
2023-07-25T07:45:13.042Z,22.00
2023-07-25T07:47:39.886Z,21.80
2023-07-25T07:50:07.128Z,21.30
2023-07-25T07:52:43.568Z,21.40
2023-07-25T07:55:11.739Z,21.60
2023-07-25T07:57:43.113Z,21.40
2023-07-25T08:00:11.016Z,21.50
2023-07-25T08:02:38.445Z,22.10
2023-07-25T08:05:05.633Z,22.90
2023-07-25T08:07:32.583Z,22.80
2023-07-25T08:09:59.458Z,22.30
2023-07-25T08:12:26.369Z,22.30
2023-07-25T08:14:53.351Z,21.60
2023-07-25T08:17:20.193Z,21.50
2023-07-25T08:19:47.266Z,21.30
2023-07-25T08:22:14.056Z,22.00
2023-07-25T08:24:41.632Z,22.70
2023-07-25T08:27:09.451Z,23.60
2023-07-25T08:29:41.072Z,24.10
2023-07-25T08:32:10.003Z,24.30
2023-07-25T08:34:38.030Z,24.10
2023-07-25T08:37:05.776Z,24.20
2023-07-25T08:39:32.646Z,24.00
2023-07-25T08:42:01.098Z,23.30
2023-07-25T08:44:28.421Z,22.40
2023-07-25T08:46:57.528Z,22.20
2023-07-25T08:49:26.003Z,22.40
2023-07-25T08:51:54.531Z,22.70
2023-07-25T08:54:38.502Z,22.50
2023-07-25T08:57:05.933Z,22.00
2023-07-25T08:59:33.279Z,21.70
2023-07-25T09:02:00.853Z,21.30
2023-07-25T09:04:28.570Z,20.90
2023-07-25T09:06:55.524Z,20.50
2023-07-25T09:09:23.657Z,20.30
2023-07-25T09:11:51.294Z,20.20
2023-07-25T09:14:18.303Z,20.10
2023-07-25T09:16:45.208Z,20.10
2023-07-25T09:19:12.744Z,19.90
2023-07-25T09:22:06.249Z,19.70
2023-07-25T09:24:40.305Z,19.60
2023-07-25T09:27:17.875Z,19.60
2023-07-25T09:29:45.973Z,19.40
2023-07-25T09:32:22.412Z,19.50
2023-07-25T09:34:58.099Z,19.50
2023-07-25T09:37:25.569Z,19.60
2023-07-25T09:39:52.941Z,19.70
2023-07-25T09:42:24.216Z,19.90
2023-07-25T09:44:52.507Z,20.40
2023-07-25T09:47:26.967Z,21.00
2023-07-25T09:49:55.810Z,21.20
2023-07-25T09:52:24.216Z,21.10
2023-07-25T09:54:51.450Z,20.80
2023-07-25T09:57:18.251Z,20.40
2023-07-25T09:59:48.467Z,20.10
2023-07-25T10:02:16.973Z,19.90
2023-07-25T10:04:44.555Z,19.70
2023-07-25T10:07:11.461Z,19.40
2023-07-25T10:09:39.405Z,19.10
2023-07-25T10:12:07.586Z,18.90
2023-07-25T10:14:38.365Z,18.80
2023-07-25T10:17:07.497Z,18.70
2023-07-25T10:19:48.608Z,18.70
2023-07-25T10:22:15.713Z,18.70
2023-07-25T10:24:42.723Z,18.80
2023-07-25T10:27:10.825Z,19.00
2023-07-25T10:29:43.448Z,19.10
2023-07-25T10:32:17.541Z,19.10
2023-07-25T10:34:46.770Z,19.00
2023-07-25T10:37:43.774Z,18.60
2023-07-25T10:40:20.953Z,18.30
2023-07-25T10:43:05.745Z,18.20
2023-07-25T10:45:34.140Z,18.20
2023-07-25T10:48:01.587Z,18.30
2023-07-25T10:50:48.865Z,18.40
2023-07-25T10:53:22.925Z,18.70
2023-07-25T10:56:09.242Z,19.00
2023-07-25T10:59:05.743Z,19.20
2023-07-25T11:01:51.858Z,19.30
2023-07-25T11:04:23.365Z,19.50
2023-07-25T11:06:51.774Z,19.70
2023-07-25T11:09:19.704Z,19.80
2023-07-25T11:11:48.262Z,20.10
2023-07-25T11:14:16.813Z,20.30
2023-07-25T11:16:45.404Z,20.40
2023-07-25T11:19:12.555Z,20.40
2023-07-25T11:21:45.299Z,20.30
2023-07-25T11:24:15.547Z,20.10
2023-07-25T11:26:44.377Z,19.90
2023-07-25T11:29:14.192Z,19.80
2023-07-25T11:31:48.693Z,19.90
2023-07-25T11:34:17.687Z,20.00
2023-07-25T11:36:45.369Z,20.00
2023-07-25T11:39:14.629Z,20.20
2023-07-25T11:41:42.275Z,20.30
2023-07-25T11:44:18.379Z,20.50
2023-07-25T11:46:50.087Z,20.60
2023-07-25T11:49:28.327Z,20.70
2023-07-25T11:52:04.605Z,20.90
2023-07-25T11:54:32.684Z,21.10
2023-07-25T11:56:59.529Z,21.00
2023-07-25T11:59:28.236Z,20.90
2023-07-25T12:01:55.173Z,21.00
2023-07-25T12:04:22.013Z,20.90
2023-07-25T12:06:48.879Z,20.90
2023-07-25T12:09:29.208Z,20.90
2023-07-25T12:11:56.121Z,20.80
2023-07-25T12:14:23.501Z,21.00
2023-07-25T12:16:50.303Z,21.20
2023-07-25T12:19:17.361Z,21.20
2023-07-25T12:21:45.545Z,21.20
2023-07-25T12:24:14.374Z,21.00
2023-07-25T12:26:44.976Z,20.80
2023-07-25T12:29:22.268Z,20.80
2023-07-25T12:31:49.685Z,20.60
2023-07-25T12:34:21.502Z,20.50
2023-07-25T12:36:49.282Z,20.40
2023-07-25T12:39:16.281Z,20.30
2023-07-25T12:41:44.865Z,20.20
2023-07-25T12:44:12.213Z,20.00
2023-07-25T12:46:40.457Z,19.90
2023-07-25T12:49:08.271Z,19.90
2023-07-25T12:51:35.292Z,20.00
2023-07-25T12:54:03.264Z,20.10
2023-07-25T12:56:30.845Z,20.50
2023-07-25T12:58:57.910Z,21.00
2023-07-25T13:01:25.494Z,21.60
2023-07-25T13:03:52.627Z,21.90
2023-07-25T13:06:19.779Z,21.90
2023-07-25T13:08:46.589Z,22.00
2023-07-25T13:11:13.541Z,22.20
2023-07-25T13:13:40.400Z,22.30
2023-07-25T13:16:07.813Z,22.50
2023-07-25T13:18:35.066Z,22.40
2023-07-25T13:21:02.335Z,22.30
2023-07-25T13:23:29.079Z,22.30
2023-07-25T13:25:55.875Z,21.90
2023-07-25T13:28:24.528Z,21.80
2023-07-25T13:30:52.148Z,22.00
2023-07-25T13:33:19.016Z,22.00
2023-07-25T13:35:45.868Z,22.00
2023-07-25T13:38:12.677Z,21.80
2023-07-25T13:40:39.462Z,21.60
2023-07-25T13:43:06.228Z,21.60
2023-07-25T13:45:46.200Z,21.80
2023-07-25T13:48:19.253Z,22.00
2023-07-25T13:50:53.797Z,21.80
2023-07-25T13:53:25.083Z,21.90
2023-07-25T13:55:52.678Z,22.10
2023-07-25T14:00:49.130Z,22.40
2023-07-25T14:03:16.052Z,22.50
2023-07-25T14:05:42.900Z,22.50
2023-07-25T14:08:09.917Z,22.30
2023-07-25T14:10:37.644Z,22.10
2023-07-25T14:13:05.084Z,21.90
2023-07-25T14:15:32.682Z,21.90
2023-07-25T14:18:01.388Z,21.60
2023-07-25T14:20:28.930Z,21.30
2023-07-25T14:22:55.850Z,21.10
2023-07-25T14:25:22.950Z,21.10
2023-07-25T14:27:50.250Z,20.90
2023-07-25T14:30:17.294Z,20.90
2023-07-25T14:32:44.379Z,20.70
2023-07-25T14:35:11.329Z,20.70
2023-07-25T14:37:53.594Z,20.80
2023-07-25T14:40:22.635Z,20.80
2023-07-25T14:42:49.661Z,20.60
2023-07-25T14:45:16.587Z,20.40
2023-07-25T14:47:43.585Z,20.30
2023-07-25T14:50:10.859Z,20.20
2023-07-25T14:52:37.716Z,20.10
2023-07-25T14:55:04.862Z,20.10
2023-07-25T14:57:31.828Z,20.20
2023-07-25T14:59:58.792Z,20.30
2023-07-25T15:02:25.770Z,20.60
2023-07-25T15:04:52.713Z,20.80
2023-07-25T15:07:19.566Z,20.90
2023-07-25T15:09:46.393Z,20.80
2023-07-25T15:12:13.287Z,20.60
2023-07-25T15:14:40.044Z,20.50
2023-07-25T15:17:06.934Z,20.40
2023-07-25T15:19:33.873Z,20.40
2023-07-25T15:22:00.889Z,20.40
2023-07-25T15:24:28.282Z,20.70
2023-07-25T15:26:56.843Z,21.00
2023-07-25T15:29:24.181Z,21.10
2023-07-25T15:31:52.278Z,21.10
2023-07-25T15:34:19.286Z,20.90
2023-07-25T15:36:46.817Z,20.80
2023-07-25T15:39:13.989Z,20.90
2023-07-25T15:41:40.919Z,20.80
2023-07-25T15:44:07.883Z,20.70
2023-07-25T15:46:34.696Z,20.60
2023-07-25T15:49:01.589Z,20.80
2023-07-25T15:51:28.550Z,20.90
2023-07-25T15:53:55.434Z,20.80
2023-07-25T15:56:22.216Z,20.70
2023-07-25T15:58:49.006Z,20.50
2023-07-25T16:01:15.965Z,20.30
2023-07-25T16:03:47.134Z,20.40
2023-07-25T16:06:14.222Z,20.50
2023-07-25T16:08:40.981Z,20.50
2023-07-25T16:11:07.870Z,20.50
2023-07-25T16:13:41.394Z,20.40
2023-07-25T16:16:08.310Z,20.40
2023-07-25T16:18:35.153Z,20.40
2023-07-25T16:21:02.432Z,20.30
2023-07-25T16:23:29.238Z,20.30
2023-07-25T16:25:57.516Z,20.20
2023-07-25T16:28:24.400Z,20.20
2023-07-25T16:30:58.947Z,20.10
2023-07-25T16:33:33.921Z,20.00
2023-07-25T16:36:00.831Z,19.80
2023-07-25T16:38:28.823Z,19.70
2023-07-25T16:40:55.787Z,19.50
2023-07-25T16:43:23.147Z,19.40
2023-07-25T16:45:50.832Z,19.30
2023-07-25T16:48:17.627Z,19.30
2023-07-25T16:50:44.391Z,19.20
2023-07-25T16:53:11.224Z,19.10
2023-07-25T16:55:38.061Z,19.00
2023-07-25T16:58:04.811Z,19.00
2023-07-25T17:00:32.295Z,19.00
2023-07-25T17:02:59.144Z,19.00
2023-07-25T17:05:26.036Z,19.20
2023-07-25T17:07:52.812Z,19.30
2023-07-25T17:10:19.594Z,19.30
2023-07-25T17:12:46.396Z,19.40
2023-07-25T17:15:13.170Z,19.40
2023-07-25T17:17:39.970Z,19.30
2023-07-25T17:20:15.783Z,19.20
2023-07-25T17:22:43.359Z,19.10
2023-07-25T17:25:10.238Z,19.00
2023-07-25T17:27:37.151Z,18.90
2023-07-25T17:30:06.421Z,18.80
2023-07-25T17:32:33.309Z,18.70
2023-07-25T17:35:00.256Z,18.60
2023-07-25T17:37:27.162Z,18.60
2023-07-25T17:39:54.066Z,18.50
2023-07-25T17:42:20.842Z,18.50
2023-07-25T17:44:47.618Z,18.50
2023-07-25T17:47:14.431Z,18.50
2023-07-25T17:49:41.232Z,18.50
2023-07-25T17:52:08.544Z,18.60
2023-07-25T17:54:35.542Z,18.60
2023-07-25T17:57:02.664Z,18.60
2023-07-25T17:59:29.940Z,18.60
2023-07-25T18:01:56.732Z,18.60
2023-07-25T18:04:23.474Z,18.60
2023-07-25T18:06:50.454Z,18.50
2023-07-25T18:09:17.258Z,18.40
2023-07-25T18:11:44.110Z,18.30
2023-07-25T18:14:10.940Z,18.20
2023-07-25T18:16:37.778Z,18.10
2023-07-25T18:19:04.613Z,18.00
2023-07-25T18:21:31.769Z,17.90
2023-07-25T18:23:58.851Z,17.80
2023-07-25T18:26:25.919Z,17.70
2023-07-25T18:28:52.684Z,17.50
2023-07-25T18:31:19.631Z,17.40
2023-07-25T18:33:46.454Z,17.20
2023-07-25T18:36:13.462Z,17.10
2023-07-25T18:38:40.326Z,17.00
2023-07-25T18:41:07.360Z,16.90
2023-07-25T18:43:34.244Z,16.80
2023-07-25T18:46:01.065Z,16.70
2023-07-25T18:48:27.884Z,16.60
2023-07-25T18:50:54.686Z,16.50
2023-07-25T18:53:21.882Z,16.30
2023-07-25T18:55:50.202Z,16.30
2023-07-25T18:58:17.711Z,16.20
2023-07-25T19:00:45.130Z,16.20
2023-07-25T19:03:12.325Z,16.10
2023-07-25T19:05:39.371Z,16.00
2023-07-25T19:08:06.396Z,15.90
2023-07-25T19:10:33.855Z,15.90
2023-07-25T19:13:00.863Z,15.80
2023-07-25T19:15:27.867Z,15.70
2023-07-25T19:17:55.043Z,15.70
2023-07-25T19:20:22.027Z,15.60
2023-07-25T19:22:49.103Z,15.50
2023-07-25T19:25:16.267Z,15.50
2023-07-25T19:27:45.402Z,15.40
2023-07-25T19:30:12.974Z,15.40
2023-07-25T19:32:40.028Z,15.30
2023-07-25T19:35:10.236Z,15.30
2023-07-25T19:37:37.751Z,15.30
2023-07-25T19:40:05.341Z,15.20
2023-07-25T19:42:33.685Z,15.20
2023-07-25T19:45:00.931Z,15.10
2023-07-25T19:47:27.805Z,15.10
2023-07-25T19:49:54.654Z,15.00
2023-07-25T19:52:21.570Z,15.00
2023-07-25T19:54:49.259Z,14.80
2023-07-25T19:57:16.485Z,14.90
2023-07-25T19:59:43.552Z,14.90
2023-07-25T20:02:10.462Z,14.90
2023-07-25T20:04:37.532Z,14.80
2023-07-25T20:07:04.719Z,14.80
2023-07-25T20:09:31.750Z,14.80
2023-07-25T20:11:58.939Z,14.70
2023-07-25T20:14:26.079Z,14.70
2023-07-25T20:16:53.512Z,14.70
2023-07-25T20:19:24.306Z,14.80
2023-07-25T20:21:54.960Z,14.60
2023-07-25T20:24:22.302Z,14.60
2023-07-25T20:26:49.489Z,14.50
2023-07-25T20:29:16.702Z,14.50
2023-07-25T20:31:43.812Z,14.40
2023-07-25T20:34:10.817Z,14.40
2023-07-25T20:36:38.269Z,14.30
2023-07-25T20:39:05.303Z,14.20
2023-07-25T20:41:32.635Z,14.10
2023-07-25T20:43:59.521Z,14.10
2023-07-25T20:46:26.461Z,14.00
2023-07-25T20:48:53.502Z,14.00
2023-07-25T20:51:20.488Z,14.00
2023-07-25T20:53:47.381Z,13.90
2023-07-25T20:56:15.339Z,13.90
2023-07-25T20:58:42.822Z,13.90
2023-07-25T21:01:09.705Z,13.80
2023-07-25T21:03:36.650Z,13.70
2023-07-25T21:06:04.501Z,13.60
2023-07-25T21:08:31.475Z,13.70
2023-07-25T21:10:59.699Z,13.70
2023-07-25T21:13:26.474Z,13.60
2023-07-25T21:15:53.381Z,13.60
2023-07-25T21:18:20.240Z,13.50
2023-07-25T21:20:47.412Z,13.50
2023-07-25T21:23:14.350Z,13.40
2023-07-25T21:25:42.773Z,13.20
2023-07-25T21:28:09.872Z,13.30
2023-07-25T21:30:37.264Z,13.30
2023-07-25T21:33:04.873Z,13.20
2023-07-25T21:35:32.313Z,13.20
2023-07-25T21:37:59.480Z,13.20
2023-07-25T21:40:26.427Z,13.10
2023-07-25T21:42:53.763Z,13.10
2023-07-25T21:45:20.766Z,13.10
2023-07-25T21:47:47.789Z,13.10
2023-07-25T21:50:14.787Z,13.20
2023-07-25T21:52:41.811Z,13.30
2023-07-25T21:55:11.519Z,13.10
2023-07-25T21:57:38.412Z,13.30
2023-07-25T22:00:06.588Z,13.10
2023-07-25T22:02:33.514Z,13.10
2023-07-25T22:05:01.069Z,13.10
2023-07-25T22:07:28.037Z,13.10
2023-07-25T22:09:54.877Z,13.10
2023-07-25T22:12:21.734Z,13.00
2023-07-25T22:14:48.564Z,13.00
2023-07-25T22:17:15.354Z,13.10
2023-07-25T22:19:43.431Z,13.10
2023-07-25T22:22:10.383Z,13.00
2023-07-25T22:24:37.269Z,13.00
2023-07-25T22:27:04.592Z,13.00
2023-07-25T22:29:31.440Z,12.90
2023-07-25T22:31:58.326Z,12.90
2023-07-25T22:34:25.304Z,12.80
2023-07-25T22:36:52.173Z,12.70
2023-07-25T22:39:19.421Z,12.80
2023-07-25T22:41:46.319Z,12.70
2023-07-25T22:44:13.066Z,12.70
2023-07-25T22:46:39.878Z,12.70
2023-07-25T22:49:06.659Z,12.60
2023-07-25T22:51:33.405Z,12.60
2023-07-25T22:54:00.262Z,12.60
2023-07-25T22:56:27.073Z,12.60
2023-07-25T22:58:53.980Z,12.60
2023-07-25T23:01:20.810Z,12.50
2023-07-25T23:03:47.680Z,12.50
2023-07-25T23:06:14.449Z,12.50
2023-07-25T23:08:41.303Z,12.40
2023-07-25T23:11:08.150Z,12.40
2023-07-25T23:13:34.938Z,12.40
2023-07-25T23:16:01.931Z,12.40
2023-07-25T23:18:28.750Z,12.40
2023-07-25T23:20:55.539Z,12.40
2023-07-25T23:23:22.405Z,12.40
2023-07-25T23:25:49.370Z,12.30
2023-07-25T23:28:16.124Z,12.30
2023-07-25T23:30:42.936Z,12.20
2023-07-25T23:33:09.899Z,12.10
2023-07-25T23:35:36.845Z,12.20
2023-07-25T23:38:03.854Z,12.20
2023-07-25T23:40:30.709Z,12.20
2023-07-25T23:42:57.521Z,12.20
2023-07-25T23:45:24.393Z,12.20
2023-07-25T23:47:51.312Z,12.10
2023-07-25T23:50:18.200Z,12.10
2023-07-25T23:52:45.113Z,12.10
2023-07-25T23:55:12.331Z,12.10
2023-07-25T23:57:39.141Z,12.00
